sensor_id;sensor_type;location;lat;lon;timestamp;pressure;altitude;pressure_sealevel;temperature;humidity
40838;BME280;29632;49.168;9.848;2023-05-11T00:01:07;96577.81;;;17.43;48.03
40838;BME280;29632;49.168;9.848;2023-05-11T00:03:33;96579.03;;;17.41;48.03
40838;BME280;29632;49.168;9.848;2023-05-11T00:05:59;96573.97;;;17.39;47.98
40838;BME280;29632;49.168;9.848;2023-05-11T00:08:25;96571.69;;;17.36;47.91
40838;BME280;29632;49.168;9.848;2023-05-11T00:10:51;96578.19;;;17.33;48.11
40838;BME280;29632;49.168;9.848;2023-05-11T00:13:16;96573.09;;;17.32;48.00
40838;BME280;29632;49.168;9.848;2023-05-11T00:15:42;96574.09;;;17.31;48.05
40838;BME280;29632;49.168;9.848;2023-05-11T00:18:08;96571.03;;;17.27;48.03
40838;BME280;29632;49.168;9.848;2023-05-11T00:20:33;96570.22;;;17.27;48.14
40838;BME280;29632;49.168;9.848;2023-05-11T00:22:59;96574.66;;;17.26;48.06
40838;BME280;29632;49.168;9.848;2023-05-11T00:25:25;96583.38;;;17.27;48.03
40838;BME280;29632;49.168;9.848;2023-05-11T00:27:51;96571.03;;;17.27;47.96
40838;BME280;29632;49.168;9.848;2023-05-11T00:30:16;96571.47;;;17.31;48.01
40838;BME280;29632;49.168;9.848;2023-05-11T00:32:43;96559.75;;;17.33;48.04
40838;BME280;29632;49.168;9.848;2023-05-11T00:35:09;96567.44;;;17.35;47.92
40838;BME280;29632;49.168;9.848;2023-05-11T00:37:39;96562.16;;;17.35;47.81
40838;BME280;29632;49.168;9.848;2023-05-11T00:40:05;96558.91;;;17.33;47.96
40838;BME280;29632;49.168;9.848;2023-05-11T00:42:32;96564.00;;;17.34;47.93
40838;BME280;29632;49.168;9.848;2023-05-11T00:44:57;96555.91;;;17.36;47.97
40838;BME280;29632;49.168;9.848;2023-05-11T00:47:24;96553.28;;;17.36;47.91
40838;BME280;29632;49.168;9.848;2023-05-11T00:49:50;96555.09;;;17.35;47.87
40838;BME280;29632;49.168;9.848;2023-05-11T00:52:16;96562.81;;;17.37;47.98
40838;BME280;29632;49.168;9.848;2023-05-11T00:54:42;96559.34;;;17.36;47.76
40838;BME280;29632;49.168;9.848;2023-05-11T00:57:08;96555.09;;;17.35;47.93
40838;BME280;29632;49.168;9.848;2023-05-11T00:59:34;96554.28;;;17.35;47.89
40838;BME280;29632;49.168;9.848;2023-05-11T01:02:00;96556.09;;;17.34;48.08
40838;BME280;29632;49.168;9.848;2023-05-11T01:04:25;96553.66;;;17.33;48.04
40838;BME280;29632;49.168;9.848;2023-05-11T01:12:39;96568.63;;;17.32;48.06
40838;BME280;29632;49.168;9.848;2023-05-11T01:15:23;96560.13;;;17.30;47.87
40838;BME280;29632;49.168;9.848;2023-05-11T01:18:14;96565.56;;;17.29;48.16
40838;BME280;29632;49.168;9.848;2023-05-11T01:20:43;96559.31;;;17.30;47.93
40838;BME280;29632;49.168;9.848;2023-05-11T01:31:33;96554.81;;;17.24;47.91
40838;BME280;29632;49.168;9.848;2023-05-11T01:34:01;96556.03;;;17.21;48.17
40838;BME280;29632;49.168;9.848;2023-05-11T01:36:31;96547.47;;;17.19;48.07
40838;BME280;29632;49.168;9.848;2023-05-11T01:39:00;96562.47;;;17.18;48.06
40838;BME280;29632;49.168;9.848;2023-05-11T01:41:28;96557.19;;;17.18;48.06
40838;BME280;29632;49.168;9.848;2023-05-11T01:43:59;96547.03;;;17.15;48.09
40838;BME280;29632;49.168;9.848;2023-05-11T01:46:29;96545.25;;;17.16;48.43
40838;BME280;29632;49.168;9.848;2023-05-11T01:48:56;96548.88;;;17.15;47.93
40838;BME280;29632;49.168;9.848;2023-05-11T01:51:28;96555.13;;;17.14;48.30
40838;BME280;29632;49.168;9.848;2023-05-11T01:53:55;96548.06;;;17.14;48.33
40838;BME280;29632;49.168;9.848;2023-05-11T01:56:21;96557.56;;;17.15;48.15
40838;BME280;29632;49.168;9.848;2023-05-11T01:58:47;96548.88;;;17.15;48.31
40838;BME280;29632;49.168;9.848;2023-05-11T02:01:14;96553.53;;;17.13;48.33
40838;BME280;29632;49.168;9.848;2023-05-11T02:03:40;96560.59;;;17.12;48.25
40838;BME280;29632;49.168;9.848;2023-05-11T02:06:07;96564.84;;;17.13;48.29
40838;BME280;29632;49.168;9.848;2023-05-11T02:08:34;96556.34;;;17.11;48.14
40838;BME280;29632;49.168;9.848;2023-05-11T02:11:01;96559.16;;;17.10;48.29
40838;BME280;29632;49.168;9.848;2023-05-11T02:13:27;96546.19;;;17.08;48.39
40838;BME280;29632;49.168;9.848;2023-05-11T02:15:55;96557.31;;;17.04;48.34
40838;BME280;29632;49.168;9.848;2023-05-11T02:18:21;96551.97;;;16.97;48.32
40838;BME280;29632;49.168;9.848;2023-05-11T02:20:47;96556.16;;;16.91;48.61
40838;BME280;29632;49.168;9.848;2023-05-11T02:23:14;96554.91;;;16.87;48.42
40838;BME280;29632;49.168;9.848;2023-05-11T02:25:41;96554.28;;;16.85;48.71
40838;BME280;29632;49.168;9.848;2023-05-11T02:28:07;96556.47;;;16.82;48.50
40838;BME280;29632;49.168;9.848;2023-05-11T02:30:39;96556.03;;;16.78;48.67
40838;BME280;29632;49.168;9.848;2023-05-11T02:33:06;96554.38;;;16.77;48.92
40838;BME280;29632;49.168;9.848;2023-05-11T02:35:37;96556.84;;;16.78;48.73
40838;BME280;29632;49.168;9.848;2023-05-11T02:38:03;96550.19;;;16.83;48.77
40838;BME280;29632;49.168;9.848;2023-05-11T02:40:32;96552.47;;;16.86;48.73
40838;BME280;29632;49.168;9.848;2023-05-11T02:43:07;96548.66;;;16.88;48.50
40838;BME280;29632;49.168;9.848;2023-05-11T02:45:33;96550.28;;;16.89;48.68
40838;BME280;29632;49.168;9.848;2023-05-11T02:48:06;96550.72;;;16.93;48.59
40838;BME280;29632;49.168;9.848;2023-05-11T02:50:36;96546.28;;;16.93;48.22
40838;BME280;29632;49.168;9.848;2023-05-11T02:53:05;96552.34;;;16.94;48.46
40838;BME280;29632;49.168;9.848;2023-05-11T02:55:32;96550.72;;;16.93;48.45
40838;BME280;29632;49.168;9.848;2023-05-11T02:57:57;96552.16;;;16.95;48.41
40838;BME280;29632;49.168;9.848;2023-05-11T03:00:23;96552.78;;;16.97;48.58
40838;BME280;29632;49.168;9.848;2023-05-11T03:02:49;96547.34;;;16.99;48.48
40838;BME280;29632;49.168;9.848;2023-05-11T03:05:14;96553.22;;;17.01;48.30
40838;BME280;29632;49.168;9.848;2023-05-11T03:07:41;96545.94;;;17.03;48.34
40838;BME280;29632;49.168;9.848;2023-05-11T03:10:07;96547.59;;;17.04;48.45
40838;BME280;29632;49.168;9.848;2023-05-11T03:12:33;96549.41;;;17.04;48.35
40838;BME280;29632;49.168;9.848;2023-05-11T03:14:59;96537.44;;;17.01;48.18
40838;BME280;29632;49.168;9.848;2023-05-11T03:17:27;96538.81;;;16.97;48.45
40838;BME280;29632;49.168;9.848;2023-05-11T03:19:54;96539.19;;;16.94;48.45
40838;BME280;29632;49.168;9.848;2023-05-11T03:22:21;96552.53;;;16.92;48.68
40838;BME280;29632;49.168;9.848;2023-05-11T03:24:48;96553.34;;;16.93;48.53
40838;BME280;29632;49.168;9.848;2023-05-11T03:27:14;96550.34;;;16.96;48.62
40838;BME280;29632;49.168;9.848;2023-05-11T03:29:41;96553.41;;;16.99;48.67
40838;BME280;29632;49.168;9.848;2023-05-11T03:32:08;96547.97;;;17.01;48.46
40838;BME280;29632;49.168;9.848;2023-05-11T03:34:34;96542.50;;;17.03;48.42
40838;BME280;29632;49.168;9.848;2023-05-11T03:37:00;96544.75;;;17.06;48.50
40838;BME280;29632;49.168;9.848;2023-05-11T03:39:28;96532.03;;;17.09;48.40
40838;BME280;29632;49.168;9.848;2023-05-11T03:41:54;96536.09;;;17.12;48.40
40838;BME280;29632;49.168;9.848;2023-05-11T03:44:21;96540.19;;;17.14;48.23
40838;BME280;29632;49.168;9.848;2023-05-11T03:46:47;96542.63;;;17.16;48.20
40838;BME280;29632;49.168;9.848;2023-05-11T03:49:15;96537.97;;;17.18;48.44
40838;BME280;29632;49.168;9.848;2023-05-11T03:51:41;96530.69;;;17.20;47.96
40838;BME280;29632;49.168;9.848;2023-05-11T03:54:07;96548.13;;;17.21;48.18
40838;BME280;29632;49.168;9.848;2023-05-11T03:56:39;96539.41;;;17.21;48.03
40838;BME280;29632;49.168;9.848;2023-05-11T03:59:05;96531.50;;;17.21;48.16
40838;BME280;29632;49.168;9.848;2023-05-11T04:01:31;96539.78;;;17.17;47.84
40838;BME280;29632;49.168;9.848;2023-05-11T04:03:57;96530.66;;;17.13;48.32
40838;BME280;29632;49.168;9.848;2023-05-11T04:06:23;96529.22;;;17.11;48.33
40838;BME280;29632;49.168;9.848;2023-05-11T04:08:49;96539.75;;;17.11;48.46
40838;BME280;29632;49.168;9.848;2023-05-11T04:11:15;96538.91;;;17.10;48.51
40838;BME280;29632;49.168;9.848;2023-05-11T04:13:40;96534.28;;;17.12;48.42
40838;BME280;29632;49.168;9.848;2023-05-11T04:16:06;96530.03;;;17.11;48.45
40838;BME280;29632;49.168;9.848;2023-05-11T04:18:32;96533.47;;;17.12;48.46
40838;BME280;29632;49.168;9.848;2023-05-11T04:20:58;96539.09;;;17.09;48.46
40838;BME280;29632;49.168;9.848;2023-05-11T04:23:23;96532.84;;;17.10;48.67
40838;BME280;29632;49.168;9.848;2023-05-11T04:25:53;96530.84;;;17.12;48.47
40838;BME280;29632;49.168;9.848;2023-05-11T04:28:19;96535.72;;;17.15;48.35
40838;BME280;29632;49.168;9.848;2023-05-11T04:30:54;96541.78;;;17.15;48.47
40838;BME280;29632;49.168;9.848;2023-05-11T04:33:20;96529.66;;;17.14;48.54
40838;BME280;29632;49.168;9.848;2023-05-11T04:35:45;96537.53;;;17.14;48.50
40838;BME280;29632;49.168;9.848;2023-05-11T04:38:12;96540.97;;;17.15;48.50
40838;BME280;29632;49.168;9.848;2023-05-11T04:40:37;96540.97;;;17.15;48.47
40838;BME280;29632;49.168;9.848;2023-05-11T04:43:03;96540.38;;;17.13;48.42
40838;BME280;29632;49.168;9.848;2023-05-11T04:45:28;96547.44;;;17.12;48.54
40838;BME280;29632;49.168;9.848;2023-05-11T04:47:54;96551.25;;;17.10;48.37
40838;BME280;29632;49.168;9.848;2023-05-11T04:50:20;96545.38;;;17.08;48.73
40838;BME280;29632;49.168;9.848;2023-05-11T04:52:45;96551.44;;;17.08;48.60
40838;BME280;29632;49.168;9.848;2023-05-11T04:55:11;96550.47;;;17.09;48.71
40838;BME280;29632;49.168;9.848;2023-05-11T04:57:37;96557.31;;;17.10;48.66
40838;BME280;29632;49.168;9.848;2023-05-11T05:00:05;96553.91;;;17.10;48.67
40838;BME280;29632;49.168;9.848;2023-05-11T05:02:31;96554.50;;;17.12;48.75
40838;BME280;29632;49.168;9.848;2023-05-11T05:04:57;96555.53;;;17.11;48.60
40838;BME280;29632;49.168;9.848;2023-05-11T05:07:22;96559.16;;;17.10;48.51
40838;BME280;29632;49.168;9.848;2023-05-11T05:09:48;96552.72;;;17.12;48.62
40838;BME280;29632;49.168;9.848;2023-05-11T05:12:16;96558.41;;;17.16;48.56
40838;BME280;29632;49.168;9.848;2023-05-11T05:14:41;96556.41;;;17.18;48.58
40838;BME280;29632;49.168;9.848;2023-05-11T05:17:07;96556.22;;;17.20;48.62
40838;BME280;29632;49.168;9.848;2023-05-11T05:19:33;96552.56;;;17.21;48.42
40838;BME280;29632;49.168;9.848;2023-05-11T05:21:58;96557.81;;;17.21;48.37
40838;BME280;29632;49.168;9.848;2023-05-11T05:24:24;96561.66;;;17.18;48.61
40838;BME280;29632;49.168;9.848;2023-05-11T05:26:50;96563.66;;;17.16;48.65
40838;BME280;29632;49.168;9.848;2023-05-11T05:29:15;96563.03;;;17.14;48.56
40838;BME280;29632;49.168;9.848;2023-05-11T05:31:41;96566.88;;;17.11;48.60
40838;BME280;29632;49.168;9.848;2023-05-11T05:34:07;96567.84;;;17.10;48.87
40838;BME280;29632;49.168;9.848;2023-05-11T05:36:32;96570.66;;;17.09;48.79
40838;BME280;29632;49.168;9.848;2023-05-11T05:38:58;96570.88;;;17.07;48.79
40838;BME280;29632;49.168;9.848;2023-05-11T05:41:24;96569.06;;;17.08;48.85
40838;BME280;29632;49.168;9.848;2023-05-11T05:43:50;96576.16;;;17.07;48.88
40838;BME280;29632;49.168;9.848;2023-05-11T05:46:16;96568.88;;;17.09;49.06
40838;BME280;29632;49.168;9.848;2023-05-11T05:48:42;96572.31;;;17.10;48.71
40838;BME280;29632;49.168;9.848;2023-05-11T05:51:07;96570.28;;;17.12;48.70
40838;BME280;29632;49.168;9.848;2023-05-11T05:53:33;96568.28;;;17.14;48.72
40838;BME280;29632;49.168;9.848;2023-05-11T05:55:58;96573.34;;;17.15;48.72
40838;BME280;29632;49.168;9.848;2023-05-11T05:58:24;96575.81;;;17.17;48.80
40838;BME280;29632;49.168;9.848;2023-05-11T06:00:50;96579.47;;;17.16;48.82
40838;BME280;29632;49.168;9.848;2023-05-11T06:03:16;96572.56;;;17.15;48.73
40838;BME280;29632;49.168;9.848;2023-05-11T06:05:42;96570.34;;;17.18;48.82
40838;BME280;29632;49.168;9.848;2023-05-11T06:08:07;96576.25;;;17.21;48.73
40838;BME280;29632;49.168;9.848;2023-05-11T06:10:33;96570.78;;;17.22;48.64
40838;BME280;29632;49.168;9.848;2023-05-11T06:12:59;96589.03;;;17.24;48.64
40838;BME280;29632;49.168;9.848;2023-05-11T06:15:24;96586.38;;;17.24;48.58
40838;BME280;29632;49.168;9.848;2023-05-11T06:17:51;96581.94;;;17.24;48.65
40838;BME280;29632;49.168;9.848;2023-05-11T06:20:16;96575.06;;;17.23;48.66
40838;BME280;29632;49.168;9.848;2023-05-11T06:22:42;96585.41;;;17.25;48.73
40838;BME280;29632;49.168;9.848;2023-05-11T06:25:08;96580.94;;;17.25;48.68
40838;BME280;29632;49.168;9.848;2023-05-11T06:27:33;96577.50;;;17.25;48.65
40838;BME280;29632;49.168;9.848;2023-05-11T06:29:59;96581.94;;;17.24;48.51
40838;BME280;29632;49.168;9.848;2023-05-11T06:32:25;96571.59;;;17.23;48.60
40838;BME280;29632;49.168;9.848;2023-05-11T06:34:51;96583.13;;;17.22;48.57
40838;BME280;29632;49.168;9.848;2023-05-11T06:37:16;96576.84;;;17.23;48.63
40838;BME280;29632;49.168;9.848;2023-05-11T06:39:46;96585.59;;;17.23;48.47
40838;BME280;29632;49.168;9.848;2023-05-11T06:42:12;96584.97;;;17.21;48.57
40838;BME280;29632;49.168;9.848;2023-05-11T06:44:38;96582.53;;;17.20;48.55
40838;BME280;29632;49.168;9.848;2023-05-11T06:47:06;96575.63;;;17.18;48.58
40838;BME280;29632;49.168;9.848;2023-05-11T06:49:31;96580.88;;;17.18;48.51
40838;BME280;29632;49.168;9.848;2023-05-11T06:51:57;96581.06;;;17.17;48.69
40838;BME280;29632;49.168;9.848;2023-05-11T06:54:23;96589.75;;;17.17;48.63
40838;BME280;29632;49.168;9.848;2023-05-11T06:56:48;96584.72;;;17.16;48.73
40838;BME280;29632;49.168;9.848;2023-05-11T06:59:14;96580.03;;;17.11;48.55
40838;BME280;29632;49.168;9.848;2023-05-11T07:01:39;96580.56;;;17.07;48.73
40838;BME280;29632;49.168;9.848;2023-05-11T07:04:05;96577.50;;;17.03;48.60
40838;BME280;29632;49.168;9.848;2023-05-11T07:06:31;96586.44;;;17.02;48.69
40838;BME280;29632;49.168;9.848;2023-05-11T07:08:57;96585.41;;;17.03;48.77
40838;BME280;29632;49.168;9.848;2023-05-11T07:11:23;96589.50;;;17.06;48.49
40838;BME280;29632;49.168;9.848;2023-05-11T07:13:50;96584.41;;;17.04;48.59
40838;BME280;29632;49.168;9.848;2023-05-11T07:16:16;96583.59;;;17.04;48.68
40838;BME280;29632;49.168;9.848;2023-05-11T07:18:41;96583.16;;;17.00;48.68
40838;BME280;29632;49.168;9.848;2023-05-11T07:21:07;96587.41;;;17.01;48.66
40838;BME280;29632;49.168;9.848;2023-05-11T07:23:33;96589.44;;;16.99;48.79
40838;BME280;29632;49.168;9.848;2023-05-11T07:25:58;96580.47;;;16.93;48.91
40838;BME280;29632;49.168;9.848;2023-05-11T07:28:24;96588.38;;;16.93;48.98
40838;BME280;29632;49.168;9.848;2023-05-11T07:30:50;96582.28;;;16.93;49.07
40838;BME280;29632;49.168;9.848;2023-05-11T07:33:15;96587.53;;;16.93;48.80
40838;BME280;29632;49.168;9.848;2023-05-11T07:35:41;96589.19;;;16.94;48.95
40838;BME280;29632;49.168;9.848;2023-05-11T07:38:07;96590.81;;;16.95;49.04
40838;BME280;29632;49.168;9.848;2023-05-11T07:40:34;96591.63;;;16.95;49.12
40838;BME280;29632;49.168;9.848;2023-05-11T07:43:00;96598.31;;;16.98;48.98
40838;BME280;29632;49.168;9.848;2023-05-11T07:45:26;96591.88;;;17.01;49.13
40838;BME280;29632;49.168;9.848;2023-05-11T07:47:51;96592.50;;;17.03;49.07
40838;BME280;29632;49.168;9.848;2023-05-11T07:50:17;96597.56;;;17.04;48.98
40838;BME280;29632;49.168;9.848;2023-05-11T07:52:43;96600.19;;;17.04;48.95
40838;BME280;29632;49.168;9.848;2023-05-11T07:55:09;96594.94;;;17.04;48.97
40838;BME280;29632;49.168;9.848;2023-05-11T07:57:34;96601.81;;;17.05;49.22
40838;BME280;29632;49.168;9.848;2023-05-11T08:00:00;96600.38;;;17.03;49.21
40838;BME280;29632;49.168;9.848;2023-05-11T08:02:26;96594.69;;;16.99;49.26
40838;BME280;29632;49.168;9.848;2023-05-11T08:04:51;96598.72;;;16.95;49.29
40838;BME280;29632;49.168;9.848;2023-05-11T08:07:17;96597.44;;;16.91;49.43
40838;BME280;29632;49.168;9.848;2023-05-11T08:09:43;96593.38;;;16.88;49.51
40838;BME280;29632;49.168;9.848;2023-05-11T08:12:08;96601.28;;;16.88;49.64
40838;BME280;29632;49.168;9.848;2023-05-11T08:14:34;96602.63;;;16.84;49.53
40838;BME280;29632;49.168;9.848;2023-05-11T08:17:00;96602.44;;;16.86;49.58
40838;BME280;29632;49.168;9.848;2023-05-11T08:19:25;96597.63;;;16.89;49.69
40838;BME280;29632;49.168;9.848;2023-05-11T08:21:51;96596.06;;;16.95;49.45
40838;BME280;29632;49.168;9.848;2023-05-11T08:24:17;96594.31;;;17.02;49.48
40838;BME280;29632;49.168;9.848;2023-05-11T08:26:42;96602.06;;;17.10;49.47
40838;BME280;29632;49.168;9.848;2023-05-11T08:29:10;96592.81;;;17.14;49.26
40838;BME280;29632;49.168;9.848;2023-05-11T08:31:37;96592.81;;;17.14;49.51
40838;BME280;29632;49.168;9.848;2023-05-11T08:34:04;96600.50;;;17.16;49.57
40838;BME280;29632;49.168;9.848;2023-05-11T08:36:30;96599.66;;;17.15;49.39
40838;BME280;29632;49.168;9.848;2023-05-11T08:38:56;96591.78;;;17.15;49.56
40838;BME280;29632;49.168;9.848;2023-05-11T08:41:22;96595.63;;;17.13;49.41
40838;BME280;29632;49.168;9.848;2023-05-11T08:43:47;96596.34;;;17.07;49.52
40838;BME280;29632;49.168;9.848;2023-05-11T08:46:16;96597.56;;;17.04;49.72
40838;BME280;29632;49.168;9.848;2023-05-11T08:48:45;96602.84;;;17.04;49.63
40838;BME280;29632;49.168;9.848;2023-05-11T08:51:10;96597.19;;;17.07;49.79
40838;BME280;29632;49.168;9.848;2023-05-11T08:53:36;96600.44;;;17.09;49.71
40838;BME280;29632;49.168;9.848;2023-05-11T08:56:03;96603.06;;;17.09;49.71
40838;BME280;29632;49.168;9.848;2023-05-11T08:58:32;96598.81;;;17.08;49.87
40838;BME280;29632;49.168;9.848;2023-05-11T09:00:58;96606.94;;;17.13;49.68
40838;BME280;29632;49.168;9.848;2023-05-11T09:03:24;96600.50;;;17.16;49.80
40838;BME280;29632;49.168;9.848;2023-05-11T09:05:53;96600.50;;;17.16;49.85
40838;BME280;29632;49.168;9.848;2023-05-11T09:08:19;96595.88;;;17.18;49.82
40838;BME280;29632;49.168;9.848;2023-05-11T09:10:44;96596.84;;;17.17;49.77
40838;BME280;29632;49.168;9.848;2023-05-11T09:13:10;96603.75;;;17.18;49.83
40838;BME280;29632;49.168;9.848;2023-05-11T09:15:36;96599.72;;;17.22;49.75
40838;BME280;29632;49.168;9.848;2023-05-11T09:18:02;96599.00;;;17.28;49.84
40838;BME280;29632;49.168;9.848;2023-05-11T09:20:29;96598.41;;;17.33;49.80
40838;BME280;29632;49.168;9.848;2023-05-11T09:22:56;96598.22;;;17.34;49.73
40838;BME280;29632;49.168;9.848;2023-05-11T09:25:23;96591.75;;;17.37;49.68
40838;BME280;29632;49.168;9.848;2023-05-11T09:27:49;96596.63;;;17.40;49.84
40838;BME280;29632;49.168;9.848;2023-05-11T09:30:17;96592.63;;;17.44;49.58
40838;BME280;29632;49.168;9.848;2023-05-11T09:32:53;96596.50;;;17.48;49.70
40838;BME280;29632;49.168;9.848;2023-05-11T09:35:26;96595.09;;;17.52;49.67
40838;BME280;29632;49.168;9.848;2023-05-11T09:38:05;96596.53;;;17.55;49.63
40838;BME280;29632;49.168;9.848;2023-05-11T09:40:32;96593.72;;;17.57;49.64
40838;BME280;29632;49.168;9.848;2023-05-11T09:42:58;96589.06;;;17.59;49.57
40838;BME280;29632;49.168;9.848;2023-05-11T09:48:00;96588.94;;;17.67;49.69
40838;BME280;29632;49.168;9.848;2023-05-11T09:50:31;96595.22;;;17.72;49.53
40838;BME280;29632;49.168;9.848;2023-05-11T09:52:57;96595.28;;;17.79;49.56
40838;BME280;29632;49.168;9.848;2023-05-11T09:55:23;96597.91;;;17.79;49.65
40838;BME280;29632;49.168;9.848;2023-05-11T09:57:53;96590.81;;;17.80;49.72
40838;BME280;29632;49.168;9.848;2023-05-11T10:00:22;96588.00;;;17.81;49.62
40838;BME280;29632;49.168;9.848;2023-05-11T10:03:00;96588.41;;;17.85;49.61
40838;BME280;29632;49.168;9.848;2023-05-11T10:05:28;96593.53;;;17.86;49.57
40838;BME280;29632;49.168;9.848;2023-05-11T10:07:58;96587.66;;;17.91;49.65
40838;BME280;29632;49.168;9.848;2023-05-11T10:10:26;96589.91;;;17.94;49.60
40838;BME280;29632;49.168;9.848;2023-05-11T10:12:52;96584.88;;;17.99;49.50
40838;BME280;29632;49.168;9.848;2023-05-11T10:15:18;96585.28;;;18.03;49.58
40838;BME280;29632;49.168;9.848;2023-05-11T10:17:55;96585.91;;;18.05;49.49
40838;BME280;29632;49.168;9.848;2023-05-11T10:20:21;96587.53;;;18.06;49.59
40838;BME280;29632;49.168;9.848;2023-05-11T10:22:52;96591.41;;;18.10;49.49
40838;BME280;29632;49.168;9.848;2023-05-11T10:25:22;96581.28;;;18.14;49.48
40838;BME280;29632;49.168;9.848;2023-05-11T10:27:48;96587.19;;;18.16;49.75
40838;BME280;29632;49.168;9.848;2023-05-11T10:30:14;96586.78;;;18.19;49.65
40838;BME280;29632;49.168;9.848;2023-05-11T10:32:40;96585.38;;;18.23;49.42
40838;BME280;29632;49.168;9.848;2023-05-11T10:35:07;96578.09;;;18.25;49.70
40838;BME280;29632;49.168;9.848;2023-05-11T10:37:33;96580.72;;;18.25;49.57
40838;BME280;29632;49.168;9.848;2023-05-11T10:39:59;96580.91;;;18.23;49.60
40838;BME280;29632;49.168;9.848;2023-05-11T10:45:44;96577.28;;;18.24;49.35
40838;BME280;29632;49.168;9.848;2023-05-11T10:54:02;96574.22;;;18.27;49.63
40838;BME280;29632;49.168;9.848;2023-05-11T10:56:39;96568.75;;;18.29;49.77
40838;BME280;29632;49.168;9.848;2023-05-11T11:01:50;96564.09;;;18.31;49.82
40838;BME280;29632;49.168;9.848;2023-05-11T11:04:23;96569.19;;;18.33;49.92
40838;BME280;29632;49.168;9.848;2023-05-11T11:07:03;96564.75;;;18.33;49.78
40838;BME280;29632;49.168;9.848;2023-05-11T11:09:48;96566.16;;;18.36;50.01
40838;BME280;29632;49.168;9.848;2023-05-11T11:12:14;96565.38;;;18.42;49.83
40838;BME280;29632;49.168;9.848;2023-05-11T11:15:02;96571.25;;;18.44;49.84
40838;BME280;29632;49.168;9.848;2023-05-11T11:17:30;96564.16;;;18.44;49.84
40838;BME280;29632;49.168;9.848;2023-05-11T11:19:57;96565.16;;;18.43;50.11
40838;BME280;29632;49.168;9.848;2023-05-11T11:22:45;96558.88;;;18.44;49.86
40838;BME280;29632;49.168;9.848;2023-05-11T11:25:11;96568.22;;;18.47;49.89
40838;BME280;29632;49.168;9.848;2023-05-11T11:32:41;96557.31;;;18.63;49.80
40838;BME280;29632;49.168;9.848;2023-05-11T11:38:00;96554.50;;;18.72;49.57
40838;BME280;29632;49.168;9.848;2023-05-11T11:40:49;96552.03;;;18.70;49.74
40838;BME280;29632;49.168;9.848;2023-05-11T11:43:20;96554.50;;;18.72;50.04
40838;BME280;29632;49.168;9.848;2023-05-11T11:46:02;96557.53;;;18.75;49.83
40838;BME280;29632;49.168;9.848;2023-05-11T11:48:34;96561.38;;;18.79;49.70
40838;BME280;29632;49.168;9.848;2023-05-11T11:51:04;96556.53;;;18.83;49.71
40838;BME280;29632;49.168;9.848;2023-05-11T11:56:06;96555.34;;;18.85;49.54
40838;BME280;29632;49.168;9.848;2023-05-11T12:01:08;96559.41;;;18.88;49.67
40838;BME280;29632;49.168;9.848;2023-05-11T12:03:35;96555.75;;;18.89;49.62
40838;BME280;29632;49.168;9.848;2023-05-11T12:06:02;96549.84;;;18.87;49.63
40838;BME280;29632;49.168;9.848;2023-05-11T12:08:29;96548.84;;;18.88;49.79
40838;BME280;29632;49.168;9.848;2023-05-11T12:10:57;96553.91;;;18.90;49.67
40838;BME280;29632;49.168;9.848;2023-05-11T12:13:24;96554.31;;;18.93;49.94
40838;BME280;29632;49.168;9.848;2023-05-11T12:15:50;96552.28;;;18.95;49.65
40838;BME280;29632;49.168;9.848;2023-05-11T12:18:31;96555.53;;;18.97;49.88
40838;BME280;29632;49.168;9.848;2023-05-11T12:20:57;96556.56;;;18.96;49.81
40838;BME280;29632;49.168;9.848;2023-05-11T12:23:22;96554.31;;;18.93;49.57
40838;BME280;29632;49.168;9.848;2023-05-11T12:26:08;96550.88;;;18.93;49.91
40838;BME280;29632;49.168;9.848;2023-05-11T12:28:34;96554.31;;;18.93;49.77
40838;BME280;29632;49.168;9.848;2023-05-11T12:31:00;96550.88;;;18.93;49.74
40838;BME280;29632;49.168;9.848;2023-05-11T12:33:26;96550.69;;;18.94;49.97
40838;BME280;29632;49.168;9.848;2023-05-11T12:35:53;96553.31;;;18.94;49.94
40838;BME280;29632;49.168;9.848;2023-05-11T12:38:19;96548.66;;;18.96;49.99
40838;BME280;29632;49.168;9.848;2023-05-11T12:40:48;96550.47;;;18.96;50.00
40838;BME280;29632;49.168;9.848;2023-05-11T12:43:21;96547.63;;;18.97;49.83
40838;BME280;29632;49.168;9.848;2023-05-11T12:45:47;96545.63;;;18.99;50.02
40838;BME280;29632;49.168;9.848;2023-05-11T12:48:13;96539.50;;;18.99;50.08
40838;BME280;29632;49.168;9.848;2023-05-11T12:50:43;96541.94;;;19.00;49.96
40838;BME280;29632;49.168;9.848;2023-05-11T12:53:17;96545.38;;;19.01;50.00
40838;BME280;29632;49.168;9.848;2023-05-11T12:55:43;96543.78;;;19.00;50.04
40838;BME280;29632;49.168;9.848;2023-05-11T12:58:13;96543.59;;;19.01;49.72
40838;BME280;29632;49.168;9.848;2023-05-11T13:00:56;96542.34;;;19.04;49.96
40838;BME280;29632;49.168;9.848;2023-05-11T13:03:29;96534.44;;;19.04;49.87
40838;BME280;29632;49.168;9.848;2023-05-11T13:06:11;96541.53;;;19.03;49.80
40838;BME280;29632;49.168;9.848;2023-05-11T13:08:38;96535.22;;;19.04;49.95
40838;BME280;29632;49.168;9.848;2023-05-11T13:11:20;96536.88;;;19.05;50.05
40838;BME280;29632;49.168;9.848;2023-05-11T13:13:47;96530.59;;;19.07;49.84
40838;BME280;29632;49.168;9.848;2023-05-11T13:16:26;96529.97;;;19.04;49.69
40838;BME280;29632;49.168;9.848;2023-05-11T13:19:00;96531.78;;;19.04;50.07
40838;BME280;29632;49.168;9.848;2023-05-11T13:21:26;96527.53;;;19.03;50.20
40838;BME280;29632;49.168;9.848;2023-05-11T13:23:53;96529.97;;;19.04;49.95
40838;BME280;29632;49.168;9.848;2023-05-11T13:26:27;96531.19;;;19.02;50.01
40838;BME280;29632;49.168;9.848;2023-05-11T13:28:53;96526.91;;;19.01;50.10
40838;BME280;29632;49.168;9.848;2023-05-11T13:31:19;96526.13;;;19.00;50.10
40838;BME280;29632;49.168;9.848;2023-05-11T13:33:45;96525.31;;;19.00;50.15
40838;BME280;29632;49.168;9.848;2023-05-11T13:36:11;96523.88;;;18.97;50.11
40838;BME280;29632;49.168;9.848;2023-05-11T13:38:36;96528.34;;;18.97;50.10
40838;BME280;29632;49.168;9.848;2023-05-11T13:41:02;96523.28;;;18.95;50.18
40838;BME280;29632;49.168;9.848;2023-05-11T13:43:28;96518.19;;;18.94;50.00